Time;durP1;ratioP1;P1;durP2;ratioP2;P2;SDS_P1;SDS_P2;PMS_P1;PMS_P2;Temp;Humidity;BMP_temperature;BMP_pressure;BME280_temperature;BME280_humidity;BME280_pressure;Samples;Min_cycle;Max_cycle;Signal;HPM_P1;HPM_P2
2021/12/03 00:01:20;;;;;;;6.37;2.15;;;;;;;11.06;47.43;99987.25;4439228;32;20025;-67
2021/12/03 00:03:46;;;;;;;5.87;1.85;;;;;;;11.11;47.51;99975.41;4422811;32;20094;-67
2021/12/03 00:06:13;;;;;;;4.05;1.80;;;;;;;10.88;47.65;99973.06;4437374;32;20149;-67
2021/12/03 00:08:40;;;;;;;6.00;2.08;;;;;;;10.77;47.90;99981.91;4438981;32;20272;-68
2021/12/03 00:11:09;;;;;;;10.63;2.78;;;;;;;10.74;48.06;99987.69;4438165;32;20089;-68
2021/12/03 00:13:35;;;;;;;7.95;1.90;;;;;;;10.49;49.07;99971.69;4441194;32;20061;-68
2021/12/03 00:16:03;;;;;;;12.60;3.20;;;;;;;10.45;48.65;99965.41;4439947;32;20133;-68
2021/12/03 00:18:30;;;;;;;9.95;3.28;;;;;;;10.49;49.01;99957.63;4437733;32;20210;-68
2021/12/03 00:20:57;;;;;;;10.13;2.80;;;;;;;10.37;49.63;99940.81;4440954;32;20466;-67
2021/12/03 00:23:27;;;;;;;8.90;3.28;;;;;;;10.11;49.80;99934.50;4437231;32;20810;-68
2021/12/03 00:25:52;;;;;;;8.52;3.47;;;;;;;10.25;49.67;99924.78;4439229;32;20588;-67
2021/12/03 00:28:19;;;;;;;9.48;3.75;;;;;;;10.12;50.30;99909.97;4440815;32;20107;-67
2021/12/03 00:30:44;;;;;;;7.12;3.87;;;;;;;9.62;51.17;99906.03;4442070;32;20037;-67
2021/12/03 00:33:12;;;;;;;9.23;4.47;;;;;;;9.57;51.09;99903.78;4439516;32;20057;-67
2021/12/03 00:35:38;;;;;;;9.02;4.50;;;;;;;9.48;51.65;99889.66;4439189;32;20061;-67
2021/12/03 00:38:04;;;;;;;13.13;4.70;;;;;;;9.52;51.53;99883.91;4441608;32;20050;-67
2021/12/03 00:40:33;;;;;;;10.68;4.30;;;;;;;9.72;51.35;99859.94;4441105;32;20083;-67
2021/12/03 00:42:59;;;;;;;7.47;4.28;;;;;;;9.98;50.94;99855.78;4441758;32;20099;-67
2021/12/03 00:45:25;;;;;;;8.23;3.50;;;;;;;9.98;50.77;99847.34;4442268;32;20033;-67
2021/12/03 00:47:51;;;;;;;5.05;3.12;;;;;;;10.10;50.62;99843.72;4440432;32;20119;-67
2021/12/03 00:50:20;;;;;;;4.47;2.60;;;;;;;9.98;50.28;99838.16;4438816;32;20052;-67
2021/12/03 00:52:46;;;;;;;6.10;2.80;;;;;;;9.98;50.88;99832.53;4440986;32;20053;-66
2021/12/03 00:55:13;;;;;;;5.05;3.20;;;;;;;9.90;50.52;99823.56;4440065;32;20473;-68
2021/12/03 00:57:39;;;;;;;6.87;2.45;;;;;;;9.90;51.02;99828.41;4441747;32;20149;-67
2021/12/03 01:00:10;;;;;;;6.55;2.35;;;;;;;9.73;51.44;99801.72;4437162;32;20040;-67
2021/12/03 01:02:36;;;;;;;3.95;2.00;;;;;;;9.60;51.80;99804.56;4442828;32;20121;-67
2021/12/03 01:05:03;;;;;;;5.10;2.33;;;;;;;9.43;51.86;99797.56;4439014;32;20104;-67
2021/12/03 01:07:29;;;;;;;4.00;1.95;;;;;;;9.39;52.27;99788.47;4442398;32;20459;-67
2021/12/03 01:09:55;;;;;;;3.28;1.92;;;;;;;9.56;51.77;99786.28;4439497;32;20109;-67
2021/12/03 01:12:20;;;;;;;3.55;2.08;;;;;;;9.57;51.98;99783.00;4440306;32;20120;-67
2021/12/03 01:14:46;;;;;;;3.22;2.35;;;;;;;9.45;52.27;99781.03;4439350;32;20627;-67
2021/12/03 01:17:12;;;;;;;3.60;2.33;;;;;;;9.53;52.06;99785.16;4441308;32;20127;-67
2021/12/03 01:19:37;;;;;;;3.97;2.50;;;;;;;9.64;52.02;99788.37;4436660;32;20100;-67
2021/12/03 01:22:04;;;;;;;4.95;2.65;;;;;;;9.42;52.33;99781.94;4440693;32;20064;-67
2021/12/03 01:24:30;;;;;;;6.82;3.10;;;;;;;9.93;51.72;99763.66;4439505;32;20449;-67
2021/12/03 01:26:56;;;;;;;5.62;3.60;;;;;;;9.56;52.36;99767.41;4438639;32;20676;-67
2021/12/03 01:29:23;;;;;;;5.40;3.50;;;;;;;9.64;52.09;99759.50;4439411;32;20103;-67
2021/12/03 01:31:51;;;;;;;7.43;4.55;;;;;;;9.22;52.97;99752.56;4440762;32;20060;-67
2021/12/03 01:34:17;;;;;;;6.22;3.85;;;;;;;9.34;52.95;99752.56;4438842;32;20067;-68
2021/12/03 01:36:43;;;;;;;5.47;3.75;;;;;;;9.40;52.95;99745.12;4441920;32;20077;-67
2021/12/03 01:39:11;;;;;;;6.57;4.05;;;;;;;9.17;53.16;99751.13;4437565;32;20092;-67
2021/12/03 01:41:37;;;;;;;6.57;4.25;;;;;;;9.39;52.89;99728.72;4423582;32;20041;-67
2021/12/03 01:44:03;;;;;;;8.50;3.95;;;;;;;9.50;52.31;99741.16;4442107;32;20418;-67
2021/12/03 01:46:31;;;;;;;6.35;4.20;;;;;;;9.87;51.66;99722.53;4440607;32;20077;-67
2021/12/03 01:48:57;;;;;;;4.65;3.40;;;;;;;9.94;51.78;99723.03;4438280;32;20058;-67
2021/12/03 01:51:23;;;;;;;3.90;3.12;;;;;;;9.70;52.05;99712.75;4439014;32;20100;-67
2021/12/03 01:53:49;;;;;;;5.55;3.03;;;;;;;10.01;51.87;99714.34;4438953;32;20909;-67
2021/12/03 01:56:17;;;;;;;3.58;2.70;;;;;;;9.97;51.60;99698.84;4425819;32;20064;-67
2021/12/03 01:58:45;;;;;;;5.20;2.55;;;;;;;10.02;51.78;99701.88;4439308;32;20042;-67
2021/12/03 02:01:14;;;;;;;3.78;2.50;;;;;;;10.16;51.57;99694.16;4438832;32;20041;-67
2021/12/03 02:03:42;;;;;;;2.62;1.90;;;;;;;10.06;52.03;99684.84;4440221;32;20038;-67
2021/12/03 02:06:10;;;;;;;3.20;2.28;;;;;;;9.64;53.24;99678.06;4439231;32;20088;-67
2021/12/03 02:08:37;;;;;;;4.20;1.95;;;;;;;9.69;53.39;99683.88;4438819;32;20411;-67
2021/12/03 02:11:05;;;;;;;3.35;2.15;;;;;;;9.70;53.11;99668.56;4438233;32;20057;-67
2021/12/03 02:13:31;;;;;;;2.80;2.20;;;;;;;9.83;53.37;99652.44;4426487;32;20117;-67
2021/12/03 02:15:57;;;;;;;2.87;2.28;;;;;;;9.88;52.73;99657.44;4436044;32;20553;-67
2021/12/03 02:18:24;;;;;;;2.22;1.62;;;;;;;9.84;52.59;99659.63;4439921;32;20382;-67
2021/12/03 02:20:52;;;;;;;2.53;1.62;;;;;;;9.98;52.58;99663.91;4439942;32;20037;-67
2021/12/03 02:23:20;;;;;;;2.17;1.70;;;;;;;9.91;52.79;99645.28;4439525;32;20072;-67
2021/12/03 02:25:46;;;;;;;2.95;1.70;;;;;;;10.15;52.53;99639.97;4440378;32;20094;-67
2021/12/03 02:28:13;;;;;;;4.25;1.70;;;;;;;9.64;53.47;99633.88;4439925;32;20698;-67
2021/12/03 02:30:40;;;;;;;1.67;1.23;;;;;;;9.91;53.10;99636.06;4438370;32;20041;-67
2021/12/03 02:33:06;;;;;;;2.40;1.37;;;;;;;9.87;52.93;99632.63;4438496;32;20049;-67
2021/12/03 02:35:32;;;;;;;3.08;1.35;;;;;;;9.92;52.51;99623.59;4439296;32;20081;-67
2021/12/03 02:37:58;;;;;;;1.77;1.10;;;;;;;9.83;52.86;99626.34;4440479;32;20670;-67
2021/12/03 02:40:25;;;;;;;3.85;1.55;;;;;;;9.86;52.84;99617.81;4438274;32;20041;-67
2021/12/03 02:42:51;;;;;;;1.60;1.08;;;;;;;10.10;52.56;99618.84;4437979;32;20140;-67
2021/12/03 02:45:19;;;;;;;3.78;1.20;;;;;;;9.92;52.88;99604.69;4438809;32;20068;-67
2021/12/03 02:47:46;;;;;;;2.33;1.25;;;;;;;9.70;53.13;99603.19;4439198;32;20409;-67
2021/12/03 02:50:14;;;;;;;1.75;1.02;;;;;;;9.45;53.98;99604.13;4437473;32;20046;-67
2021/12/03 02:52:44;;;;;;;3.45;1.08;;;;;;;9.47;54.39;99581.19;4437316;32;20072;-67
2021/12/03 02:55:10;;;;;;;1.80;1.02;;;;;;;9.39;54.66;99574.31;4436764;32;20075;-67
2021/12/03 02:57:36;;;;;;;1.95;1.40;;;;;;;9.60;53.72;99567.84;4440640;32;20045;-67
2021/12/03 03:00:04;;;;;;;2.53;1.70;;;;;;;9.69;53.71;99560.25;4437565;32;20089;-67
2021/12/03 03:02:30;;;;;;;1.60;1.12;;;;;;;9.88;53.33;99558.34;4439882;32;20112;-67
2021/12/03 03:04:55;;;;;;;3.28;1.35;;;;;;;9.50;53.74;99541.75;4438328;32;21330;-67
2021/12/03 03:07:21;;;;;;;2.50;1.42;;;;;;;9.34;54.16;99544.78;4440243;32;20045;-67
2021/12/03 03:09:47;;;;;;;2.25;1.35;;;;;;;9.32;54.46;99536.03;4438206;32;20077;-67
2021/12/03 03:12:13;;;;;;;3.15;1.30;;;;;;;9.54;54.26;99519.13;4440205;32;20161;-67
2021/12/03 03:14:51;;;;;;;3.22;1.55;;;;;;;9.88;53.95;99511.31;4440176;32;20365;-67
2021/12/03 03:17:18;;;;;;;4.18;1.45;;;;;;;10.41;52.12;99497.09;4438979;32;20041;-67
2021/12/03 03:19:43;;;;;;;2.22;1.50;;;;;;;9.96;53.36;99494.97;4439987;32;20025;-67
2021/12/03 03:22:09;;;;;;;4.07;1.17;;;;;;;10.30;52.88;99488.34;4438447;32;20093;-67
2021/12/03 03:24:35;;;;;;;1.55;1.10;;;;;;;10.08;53.28;99503.31;4439373;32;20112;-67
2021/12/03 03:27:02;;;;;;;2.67;1.50;;;;;;;10.35;52.70;99498.97;4439361;32;20037;-67
2021/12/03 03:29:28;;;;;;;1.85;1.15;;;;;;;10.34;52.44;99500.22;4437752;32;20049;-67
2021/12/03 03:31:54;;;;;;;2.28;1.33;;;;;;;10.38;52.43;99496.03;4437967;32;20130;-67
2021/12/03 03:34:20;;;;;;;1.60;1.10;;;;;;;10.34;52.35;99474.94;4439193;32;20140;-66
2021/12/03 03:36:45;;;;;;;1.85;1.30;;;;;;;10.18;52.72;99480.84;4436833;32;20049;-66
2021/12/03 03:39:13;;;;;;;1.52;1.27;;;;;;;10.04;53.46;99479.38;4438195;32;20530;-66
2021/12/03 03:41:41;;;;;;;2.37;1.33;;;;;;;10.32;53.04;99475.37;4440341;32;20410;-67
2021/12/03 03:44:08;;;;;;;2.37;1.20;;;;;;;9.67;54.49;99466.47;4438296;32;20475;-67
2021/12/03 03:46:34;;;;;;;2.65;1.33;;;;;;;9.90;53.80;99463.09;4440930;32;20593;-66
2021/12/03 03:49:00;;;;;;;1.73;1.20;;;;;;;9.91;54.03;99459.81;4440044;32;20448;-67
2021/12/03 03:51:26;;;;;;;2.10;1.40;;;;;;;9.61;54.37;99466.28;4439985;32;20124;-67
2021/12/03 03:53:52;;;;;;;2.65;1.67;;;;;;;9.54;54.84;99435.69;4428250;32;20438;-67
2021/12/03 03:56:17;;;;;;;1.70;1.30;;;;;;;9.69;54.65;99433.06;4442010;32;20127;-67
2021/12/03 03:58:43;;;;;;;2.65;1.30;;;;;;;9.63;54.31;99438.53;4440569;32;20030;-67
2021/12/03 04:01:11;;;;;;;2.60;1.67;;;;;;;9.72;53.99;99432.94;4438792;32;20104;-67
2021/12/03 04:03:37;;;;;;;1.65;1.33;;;;;;;10.24;53.47;99419.94;4441530;32;20820;-67
2021/12/03 04:06:02;;;;;;;2.65;1.45;;;;;;;9.90;53.75;99438.59;4441589;32;20081;-67
2021/12/03 04:08:29;;;;;;;1.52;1.35;;;;;;;10.30;52.65;99424.44;4439904;32;20794;-67
2021/12/03 04:10:59;;;;;;;1.50;1.30;;;;;;;10.35;52.27;99432.28;4438991;32;20057;-67
2021/12/03 04:13:25;;;;;;;1.42;1.23;;;;;;;10.59;52.15;99443.69;4442847;32;20084;-67
2021/12/03 04:15:51;;;;;;;2.17;1.50;;;;;;;10.57;52.16;99438.53;4440170;32;20072;-67
2021/12/03 04:18:17;;;;;;;2.87;1.33;;;;;;;10.33;52.26;99440.38;4441481;32;20453;-67
2021/12/03 04:20:43;;;;;;;1.70;1.60;;;;;;;10.75;51.66;99421.63;4440935;32;20149;-67
2021/12/03 04:23:09;;;;;;;1.92;1.37;;;;;;;10.80;51.66;99435.03;4443046;32;20033;-67
2021/12/03 04:25:35;;;;;;;2.40;1.60;;;;;;;10.78;51.35;99422.69;4439608;32;21498;-67
2021/12/03 04:28:02;;;;;;;2.15;1.50;;;;;;;10.81;51.49;99404.88;4439802;32;20394;-67
2021/12/03 04:30:30;;;;;;;3.12;1.67;;;;;;;11.03;51.09;99399.81;4441832;32;20077;-67
2021/12/03 04:32:56;;;;;;;2.50;1.65;;;;;;;11.09;51.23;99395.91;4441081;32;20416;-67
2021/12/03 04:35:25;;;;;;;1.87;1.67;;;;;;;10.51;52.73;99394.59;4440610;32;20097;-67
2021/12/03 04:37:51;;;;;;;2.25;1.92;;;;;;;10.29;53.02;99377.13;4439515;32;20029;-67
2021/12/03 04:40:18;;;;;;;4.55;2.10;;;;;;;9.95;54.25;99355.72;4439400;32;20455;-68
2021/12/03 04:42:44;;;;;;;2.42;1.92;;;;;;;10.40;53.66;99361.34;4443130;32;20041;-68
2021/12/03 04:45:12;;;;;;;3.92;2.30;;;;;;;10.19;53.98;99353.09;4442552;32;20474;-68
2021/12/03 04:47:38;;;;;;;3.30;2.45;;;;;;;10.36;53.77;99349.47;4440211;32;20401;-68
2021/12/03 04:50:06;;;;;;;2.33;1.90;;;;;;;10.50;53.30;99348.84;4440698;32;20443;-68
2021/12/03 04:52:33;;;;;;;2.62;1.90;;;;;;;10.77;52.46;99336.75;4441613;32;20497;-68
2021/12/03 04:54:58;;;;;;;2.30;1.70;;;;;;;10.90;52.32;99337.31;4442381;32;20130;-68
2021/12/03 04:57:24;;;;;;;2.95;1.83;;;;;;;10.73;52.81;99333.28;4441454;32;21117;-68
2021/12/03 04:59:50;;;;;;;3.15;2.10;;;;;;;11.24;51.67;99350.94;4441055;32;20038;-68
2021/12/03 05:02:19;;;;;;;2.85;2.12;;;;;;;10.90;52.00;99342.94;4425620;32;20056;-68
2021/12/03 05:04:45;;;;;;;3.05;2.28;;;;;;;10.90;52.23;99326.84;4440209;32;20071;-68
2021/12/03 05:09:45;;;;;;;4.35;2.45;;;;;;;10.87;52.71;99302.47;3974332;32;15159551;-68
2021/12/03 05:12:11;;;;;;;2.55;2.12;;;;;;;10.87;52.71;99302.47;4431936;32;20730;-68
2021/12/03 05:14:37;;;;;;;4.05;3.10;;;;;;;10.45;53.71;99290.41;4433552;32;20033;-69
2021/12/03 05:17:04;;;;;;;5.50;2.80;;;;;;;10.26;54.38;99290.91;4429390;32;20188;-69
2021/12/03 05:19:29;;;;;;;3.62;2.60;;;;;;;10.62;53.67;99282.41;4433026;32;20797;-68
2021/12/03 05:21:56;;;;;;;4.22;2.60;;;;;;;10.40;53.95;99288.22;4435216;32;20037;-68
2021/12/03 05:24:21;;;;;;;8.32;3.10;;;;;;;10.32;54.34;99258.09;4434550;32;20549;-68
2021/12/03 05:26:49;;;;;;;3.50;2.40;;;;;;;10.71;53.57;99252.19;4432678;32;20049;-68
2021/12/03 05:29:15;;;;;;;4.35;2.12;;;;;;;10.60;53.49;99251.12;4433247;32;20177;-68
2021/12/03 05:31:41;;;;;;;3.78;2.15;;;;;;;10.32;54.12;99244.84;4434801;32;20084;-68
2021/12/03 05:34:12;;;;;;;3.62;2.25;;;;;;;10.34;54.06;99239.50;4433589;32;20049;-68
2021/12/03 05:36:38;;;;;;;3.05;1.90;;;;;;;10.22;54.64;99239.69;4436624;32;20037;-67
2021/12/03 05:39:05;;;;;;;6.47;2.37;;;;;;;9.90;55.74;99241.91;4431875;32;20509;-67
2021/12/03 05:41:32;;;;;;;5.95;2.78;;;;;;;10.41;54.50;99239.19;4433543;32;20486;-67
2021/12/03 05:43:58;;;;;;;3.92;2.50;;;;;;;10.43;54.68;99235.91;4430126;32;20133;-67
2021/12/03 05:46:24;;;;;;;3.97;1.90;;;;;;;10.25;54.89;99231.13;4433529;32;20080;-67
2021/12/03 05:48:50;;;;;;;4.43;2.30;;;;;;;9.95;55.69;99232.84;4433924;32;20030;-67
2021/12/03 05:51:16;;;;;;;3.30;2.30;;;;;;;10.11;55.20;99220.53;4433339;32;20033;-67
2021/12/03 05:53:42;;;;;;;4.30;2.10;;;;;;;10.37;54.79;99229.34;4432822;32;21176;-67
2021/12/03 05:56:08;;;;;;;2.30;2.00;;;;;;;10.92;53.67;99227.88;4434623;32;20413;-67
2021/12/03 05:58:34;;;;;;;3.67;2.37;;;;;;;10.88;53.79;99216.78;4433827;32;20037;-67
2021/12/03 06:00:59;;;;;;;5.68;2.22;;;;;;;11.16;52.98;99220.19;4431887;32;20108;-67
2021/12/03 06:03:25;;;;;;;3.00;2.20;;;;;;;11.24;52.67;99230.66;4433374;32;20081;-67
2021/12/03 06:05:50;;;;;;;3.15;2.10;;;;;;;11.71;51.83;99230.63;4430344;32;20060;-67
2021/12/03 06:08:16;;;;;;;3.45;2.33;;;;;;;11.86;51.33;99239.87;4432615;32;20123;-67
2021/12/03 06:10:43;;;;;;;3.40;2.20;;;;;;;12.07;50.80;99252.84;4430990;32;20068;-67
2021/12/03 06:13:08;;;;;;;3.37;2.40;;;;;;;12.28;50.38;99250.91;4433443;32;20145;-67
2021/12/03 06:15:34;;;;;;;4.22;2.60;;;;;;;12.59;49.93;99262.47;4434611;32;20122;-67
2021/12/03 06:18:00;;;;;;;3.67;1.85;;;;;;;12.86;49.38;99253.66;4435238;32;20100;-67
2021/12/03 06:20:25;;;;;;;2.97;1.92;;;;;;;12.59;49.51;99250.41;4425543;32;20493;-67
2021/12/03 06:22:51;;;;;;;2.67;1.77;;;;;;;13.18;48.23;99258.31;4424717;32;21567;-67
2021/12/03 06:25:18;;;;;;;2.28;1.40;;;;;;;13.29;48.34;99263.34;4422272;32;20325;-67
2021/12/03 06:27:44;;;;;;;3.25;1.62;;;;;;;13.41;48.00;99273.53;4424068;32;20030;-67
2021/12/03 06:30:13;;;;;;;2.17;1.20;;;;;;;13.23;48.28;99270.94;4420376;32;20149;-67
2021/12/03 06:32:40;;;;;;;3.60;1.60;;;;;;;13.37;48.09;99268.06;4426895;32;20050;-67
2021/12/03 06:35:09;;;;;;;3.37;1.98;;;;;;;13.50;47.99;99273.38;4422113;32;20473;-67
2021/12/03 06:37:35;;;;;;;3.30;1.70;;;;;;;13.86;47.38;99261.50;4420978;32;20086;-67
2021/12/03 06:40:03;;;;;;;1.83;1.50;;;;;;;13.86;47.37;99267.16;4423264;32;20089;-67
2021/12/03 06:42:31;;;;;;;7.22;2.25;;;;;;;13.51;47.57;99257.97;4421666;32;20093;-67
2021/12/03 06:44:57;;;;;;;4.62;2.28;;;;;;;13.72;47.36;99257.47;4425115;32;20054;-67
2021/12/03 06:47:22;;;;;;;6.68;2.28;;;;;;;13.81;47.03;99248.84;4423608;32;20037;-67
2021/12/03 06:49:48;;;;;;;5.32;2.30;;;;;;;13.89;46.48;99252.81;4419024;32;20210;-67
2021/12/03 06:52:16;;;;;;;4.05;2.17;;;;;;;13.73;47.39;99250.56;4423056;32;20075;-68
2021/12/03 06:54:43;;;;;;;6.07;2.75;;;;;;;13.64;47.60;99239.41;4420678;32;20240;-68
2021/12/03 06:57:10;;;;;;;6.82;2.97;;;;;;;13.88;47.16;99239.94;4421418;32;20085;-68
2021/12/03 06:59:37;;;;;;;4.28;2.12;;;;;;;13.92;47.18;99245.38;4419384;32;20060;-68
2021/12/03 07:02:04;;;;;;;7.18;2.30;;;;;;;13.69;47.84;99246.41;4424916;32;20065;-68
2021/12/03 07:04:30;;;;;;;3.45;2.20;;;;;;;14.08;47.09;99237.06;4421293;32;20095;-68
2021/12/03 07:06:55;;;;;;;3.58;2.12;;;;;;;14.07;46.91;99238.34;4421534;32;20364;-68
2021/12/03 07:09:21;;;;;;;14.15;3.58;;;;;;;14.07;47.14;99231.91;4419788;32;20528;-68
2021/12/03 07:11:49;;;;;;;6.10;2.55;;;;;;;14.08;46.80;99222.13;4421618;32;20421;-68
2021/12/03 07:14:14;;;;;;;5.12;2.50;;;;;;;14.44;46.41;99221.50;4423489;32;20126;-68
2021/12/03 07:16:40;;;;;;;4.47;2.70;;;;;;;14.59;45.98;99218.53;4422636;32;20085;-68
2021/12/03 07:19:06;;;;;;;7.75;2.58;;;;;;;14.67;46.21;99228.88;4420042;32;20489;-68
2021/12/03 07:21:32;;;;;;;4.18;2.97;;;;;;;14.91;46.05;99237.06;4421272;32;20068;-68
2021/12/03 07:23:58;;;;;;;2.72;2.05;;;;;;;14.97;46.00;99252.03;4422104;32;20415;-68
2021/12/03 07:26:24;;;;;;;3.30;2.28;;;;;;;14.86;45.62;99243.44;4423636;32;20038;-68
2021/12/03 07:28:51;;;;;;;6.87;2.75;;;;;;;14.99;45.54;99240.97;4419701;32;20224;-69
2021/12/03 07:31:17;;;;;;;5.03;3.12;;;;;;;15.01;45.74;99258.25;4419280;32;20135;-69
2021/12/03 07:33:43;;;;;;;3.72;2.30;;;;;;;14.93;45.93;99269.25;4419577;32;20114;-69
2021/12/03 07:36:09;;;;;;;7.50;2.95;;;;;;;15.00;45.88;99263.13;4419500;32;20064;-69
2021/12/03 07:38:36;;;;;;;8.40;3.67;;;;;;;15.02;45.56;99260.56;4423556;32;20479;-69
2021/12/03 07:41:03;;;;;;;6.93;3.20;;;;;;;15.10;45.99;99258.06;4419577;32;20069;-69
2021/12/03 07:43:29;;;;;;;6.53;3.70;;;;;;;15.13;45.53;99265.53;4420342;32;20662;-69
2021/12/03 07:45:54;;;;;;;15.30;5.95;;;;;;;15.01;45.76;99270.34;4414913;32;20140;-69
2021/12/03 07:48:23;;;;;;;23.35;8.82;;;;;;;14.99;45.64;99270.06;4420488;32;21010;-69
2021/12/03 07:50:51;;;;;;;17.55;7.18;;;;;;;15.08;45.83;99269.09;4413032;32;20087;-70
2021/12/03 07:53:18;;;;;;;11.00;5.72;;;;;;;15.13;45.37;99266.28;4420548;32;20335;-69
2021/12/03 07:55:46;;;;;;;8.35;4.50;;;;;;;14.88;45.66;99269.97;4415408;32;20053;-69
2021/12/03 07:58:11;;;;;;;11.45;4.97;;;;;;;14.96;45.89;99284.47;4408475;32;20176;-69
2021/12/03 08:00:37;;;;;;;11.23;4.72;;;;;;;14.78;46.25;99285.59;4417043;32;20170;-69
2021/12/03 08:03:03;;;;;;;9.15;4.70;;;;;;;15.01;45.97;99278.84;4412901;32;20077;-70
2021/12/03 08:05:29;;;;;;;9.73;4.93;;;;;;;15.28;45.89;99289.59;4410566;32;20451;-70
2021/12/03 08:07:55;;;;;;;11.12;6.45;;;;;;;15.11;45.98;99280.22;4412434;32;20142;-70
2021/12/03 08:10:21;;;;;;;12.73;5.53;;;;;;;15.21;45.87;99284.37;4410871;32;20089;-69
2021/12/03 08:12:47;;;;;;;11.23;5.53;;;;;;;15.37;45.77;99278.06;4409561;32;20099;-69
2021/12/03 08:15:15;;;;;;;11.05;5.18;;;;;;;15.40;45.64;99281.97;4411306;32;20078;-69
2021/12/03 08:17:42;;;;;;;8.05;5.03;;;;;;;15.65;44.89;99287.50;4410423;32;20065;-69
2021/12/03 08:20:09;;;;;;;11.10;5.00;;;;;;;15.30;45.65;99281.38;4406542;32;20173;-69
2021/12/03 08:22:35;;;;;;;11.77;5.87;;;;;;;15.50;45.44;99266.31;4410291;32;20123;-68
2021/12/03 08:25:01;;;;;;;13.68;6.50;;;;;;;15.03;45.94;99281.94;4403237;32;20077;-68
2021/12/03 08:27:27;;;;;;;13.40;6.53;;;;;;;15.10;46.11;99278.63;4399229;32;20076;-69
2021/12/03 08:29:53;;;;;;;7.25;4.75;;;;;;;15.29;45.71;99271.31;4413599;32;20110;-68
2021/12/03 08:32:19;;;;;;;7.35;3.45;;;;;;;15.03;47.96;99272.69;4415123;32;21541;-68
2021/12/03 08:34:45;;;;;;;5.97;3.45;;;;;;;15.49;48.12;99281.75;4415184;32;20104;-69
2021/12/03 08:37:11;;;;;;;4.93;2.85;;;;;;;15.62;48.89;99276.44;4413790;32;20041;-69
2021/12/03 08:39:38;;;;;;;5.12;2.72;;;;;;;15.81;49.13;99281.12;4410252;32;20034;-69
2021/12/03 08:42:06;;;;;;;5.43;3.30;;;;;;;16.08;48.63;99276.87;4412910;32;20034;-69
2021/12/03 08:44:32;;;;;;;6.40;2.40;;;;;;;16.41;47.99;99274.09;4415891;32;20038;-69
2021/12/03 08:47:03;;;;;;;6.80;2.12;;;;;;;16.15;47.80;99278.41;4415725;32;20382;-69
2021/12/03 08:49:31;;;;;;;5.78;2.55;;;;;;;16.15;47.22;99284.87;4413718;32;20052;-68
2021/12/03 08:54:53;;;;;;;3.12;1.83;;;;;;;16.35;46.32;99287.50;3965421;32;15024057;-67
2021/12/03 08:57:30;;;;;;;6.50;2.42;;;;;;;16.35;46.32;99287.50;4425262;32;20111;-67
2021/12/03 09:00:00;;;;;;;7.43;2.22;;;;;;;16.68;45.21;99284.75;4425711;32;20563;-67
2021/12/03 09:02:26;;;;;;;5.57;1.87;;;;;;;16.62;45.50;99283.19;4425100;32;20056;-67
2021/12/03 09:04:52;;;;;;;7.47;2.17;;;;;;;16.60;45.16;99280.84;4427983;32;20424;-67
2021/12/03 09:07:18;;;;;;;5.75;2.28;;;;;;;16.81;44.62;99284.25;4430092;32;20488;-68
2021/12/03 09:09:44;;;;;;;7.47;2.20;;;;;;;16.83;44.56;99281.66;4428098;32;20456;-67
2021/12/03 09:12:11;;;;;;;7.47;1.67;;;;;;;16.98;43.57;99294.31;4429306;32;20123;-68
2021/12/03 09:14:44;;;;;;;6.80;1.62;;;;;;;16.89;43.19;99286.06;4428315;32;20126;-67
2021/12/03 09:22:33;;;;;;;9.35;1.48;;;;;;;17.26;41.88;99289.38;3976079;32;15033610;-68
2021/12/03 09:24:59;;;;;;;7.10;1.90;;;;;;;17.10;42.55;99281.66;4423922;32;20115;-69
2021/12/03 09:27:27;;;;;;;7.90;2.05;;;;;;;16.95;42.22;99286.81;4427072;32;20521;-68
2021/12/03 09:29:55;;;;;;;9.52;1.70;;;;;;;17.13;42.14;99280.62;4424957;32;21031;-68
2021/12/03 09:32:24;;;;;;;6.95;1.67;;;;;;;16.96;41.67;99282.69;4421244;32;20060;-67
2021/12/03 09:34:50;;;;;;;12.40;1.65;;;;;;;16.88;41.81;99269.53;4426097;32;20091;-68
2021/12/03 09:37:17;;;;;;;9.73;1.90;;;;;;;16.96;41.56;99296.91;4427250;32;20046;-68
2021/12/03 09:39:45;;;;;;;10.30;2.42;;;;;;;17.09;41.58;99299.22;4425030;32;20072;-68
2021/12/03 09:42:13;;;;;;;12.93;1.45;;;;;;;16.93;42.10;99289.41;4425512;32;20419;-68
2021/12/03 09:44:41;;;;;;;12.73;2.47;;;;;;;17.39;41.13;99280.31;4426246;32;20167;-67
2021/12/03 09:47:07;;;;;;;12.45;2.20;;;;;;;17.72;40.93;99274.56;4425266;32;20077;-67
2021/12/03 09:49:34;;;;;;;9.98;1.80;;;;;;;17.72;41.25;99271.72;4422171;32;20218;-68
2021/12/03 09:54:45;;;;;;;8.63;2.05;;;;;;;18.16;39.20;99250.81;3972926;32;15031029;-67
2021/12/03 09:57:23;;;;;;;12.55;2.78;;;;;;;17.91;40.29;99252.75;4423518;32;20343;-67
2021/12/03 10:53:14;;;;;;;13.82;1.67;;;;;;;19.52;36.13;99302.34;3962509;32;15022200;-69
2021/12/03 10:56:17;;;;;;;13.35;4.97;;;;;;;19.52;36.13;99302.34;4402895;32;20558;-70
2021/12/03 11:37:26;;;;;;;19.25;3.33;;;;;;;18.68;39.43;99286.47;4416296;32;20111;-70
2021/12/03 12:59:26;;;;;;;11.10;2.35;;;;;;;20.21;37.72;99256.13;3988969;31;15018447;-69
2021/12/03 14:04:57;;;;;;;;;;;;;;;19.83;37.43;99175.38;4420428;32;20214;-70
2021/12/03 14:39:37;;;;;;;19.40;4.20;;;;;;;19.53;37.53;99160.47;3972752;32;15022688;-69
2021/12/03 14:42:53;;;;;;;13.15;2.45;;;;;;;19.53;37.53;99160.47;4424117;32;20065;-69
2021/12/03 14:45:07;;;;;;;13.85;2.30;;;;;;;19.06;37.30;99157.13;4425242;32;20097;-69
2021/12/03 14:53:44;;;;;;;15.27;2.33;;;;;;;19.69;36.72;99174.53;3975122;32;15023696;-68
2021/12/03 14:55:54;;;;;;;11.70;2.15;;;;;;;19.69;36.72;99174.53;4430359;32;20093;-69
2021/12/03 14:58:23;;;;;;;15.75;3.25;;;;;;;19.08;37.62;99163.03;4422618;32;20183;-70
2021/12/03 15:00:58;;;;;;;15.68;2.72;;;;;;;19.16;37.77;99148.97;4421495;32;20077;-70
2021/12/03 15:06:26;;;;;;;12.43;2.80;;;;;;;19.30;37.62;99136.41;3939987;32;15745496;-70
2021/12/03 15:23:14;;;;;;;14.85;2.42;;;;;;;19.34;37.37;99134.00;3974779;32;15021516;-69
2021/12/03 15:25:57;;;;;;;;;;;;;;;19.34;37.37;99134.00;4426306;32;20080;-70
2021/12/03 15:31:02;;;;;;;18.52;3.62;;;;;;;18.75;38.29;99128.41;4425531;32;20126;-72
2021/12/03 15:36:19;;;;;;;;;;;;;;;18.61;38.26;99126.72;4424223;32;20073;-71
2021/12/03 15:39:03;;;;;;;16.30;4.32;;;;;;;19.13;37.48;99132.91;4426479;32;20014;-71
2021/12/03 15:58:10;;;;;;;19.85;4.12;;;;;;;18.57;38.00;99129.88;4429791;32;20045;-71
2021/12/03 16:06:20;;;;;;;14.80;2.83;;;;;;;18.49;38.09;99113.88;4428328;32;20088;-71
2021/12/03 16:08:48;;;;;;;14.30;2.75;;;;;;;18.34;38.16;99099.22;4428301;32;20069;-71
2021/12/03 16:17:02;;;;;;;;;;;;;;;18.55;38.13;99101.16;4423222;32;20083;-71
2021/12/03 16:30:59;;;;;;;23.27;6.10;;;;;;;18.48;38.68;99104.59;4429915;32;20077;-70
2021/12/03 16:44:17;;;;;;;24.17;6.72;;;;;;;18.61;39.01;99099.03;4431827;32;20037;-70
2021/12/03 16:46:55;;;;;;;20.77;6.20;;;;;;;18.72;39.57;99107.44;4431707;32;20029;-70
2021/12/03 16:52:07;;;;;;;22.23;5.85;;;;;;;18.53;39.75;99117.25;4430235;32;20470;-70
2021/12/03 16:54:41;;;;;;;21.00;5.95;;;;;;;18.55;39.29;99123.16;4429119;32;20101;-70
2021/12/03 16:57:08;;;;;;;16.92;6.75;;;;;;;18.54;39.39;99121.62;4431136;32;20130;-70
2021/12/03 16:59:34;;;;;;;26.37;6.90;;;;;;;18.54;39.65;99116.72;4431504;32;20158;-70
2021/12/03 17:48:55;;;;;;;23.92;9.15;;;;;;;18.21;40.58;99113.31;4434817;32;20200;-70
2021/12/03 17:54:21;;;;;;;30.23;9.45;;;;;;;18.43;40.21;99105.41;3982174;32;15021656;-69
2021/12/03 17:56:25;;;;;;;24.10;8.25;;;;;;;18.43;40.21;99105.41;4438983;32;20077;-69
2021/12/03 17:58:55;;;;;;;25.20;8.60;;;;;;;17.95;40.72;99107.31;4437500;32;20068;-69
2021/12/03 18:01:27;;;;;;;23.33;8.32;;;;;;;17.95;40.86;99098.78;4438637;32;20135;-69
2021/12/03 18:04:06;;;;;;;21.92;7.72;;;;;;;18.01;41.15;99096.69;4439282;32;20095;-69
2021/12/03 18:06:51;;;;;;;26.12;9.18;;;;;;;18.03;40.93;99097.69;4437272;32;20064;-69
2021/12/03 18:51:01;;;;;;;35.25;10.45;;;;;;;17.52;41.44;99039.59;4438062;32;20107;-69
2021/12/03 18:56:09;;;;;;;33.40;9.60;;;;;;;17.62;41.57;99042.88;4437660;32;20117;-69
2021/12/03 18:58:36;;;;;;;26.12;9.18;;;;;;;17.52;41.65;99038.84;4438767;32;20499;-69
2021/12/03 19:01:02;;;;;;;30.50;9.50;;;;;;;17.44;41.99;99043.53;4435973;32;20021;-69
2021/12/03 19:06:34;;;;;;;35.35;10.05;;;;;;;17.41;42.10;99039.63;4434758;32;20486;-69
2021/12/03 19:09:05;;;;;;;25.77;8.95;;;;;;;17.55;41.50;99049.91;4427760;32;20431;-69
2021/12/03 19:11:37;;;;;;;31.02;9.52;;;;;;;17.62;41.51;99040.03;4435441;32;20059;-69
2021/12/03 19:14:06;;;;;;;33.13;8.85;;;;;;;17.42;42.20;99032.63;4434758;32;20106;-69